UZB42 UZSS-UZTT
Flight info
| Callsign | UZB42 |
|---|---|
| Flight time | 0h 27m |
| Altitude | 23000 |
| Route | N0450F230 TITAR Y92 NETAT M168 KUFIM |
| Aircraft | A320/M-VGDW/C |
Departure
| Time | 2026-04-23 17:00 |
|---|---|
| Airport | Samarkand International Airport (UZSS) |
Arrival
| Time | 2026-04-23 17:27 |
|---|---|
| Airport | Tashkent International Airport (UZTT) |
| Time | Latitude | Longitude | Altitude | Speed | Heading |
|---|---|---|---|---|---|
| 2026-04-23 16:48 | 39.69729 | 66.99126 | 2208 ft | 0 kts | 186° |
| 2026-04-23 16:54 | 39.69736 | 66.99127 | 2208 ft | 2 kts | 183° |
| 2026-04-23 16:55 | 39.69752 | 66.99128 | 2208 ft | 2 kts | 184° |
| 2026-04-23 16:55 | 39.69769 | 66.99130 | 2207 ft | 2 kts | 182° |
| 2026-04-23 16:55 | 39.69785 | 66.99130 | 2205 ft | 2 kts | 179° |
| 2026-04-23 16:55 | 39.69801 | 66.99129 | 2206 ft | 2 kts | 168° |
| 2026-04-23 16:56 | 39.69816 | 66.99121 | 2207 ft | 2 kts | 108° |
| 2026-04-23 16:56 | 39.69820 | 66.99100 | 2207 ft | 2 kts | 95° |
| 2026-04-23 16:56 | 39.69820 | 66.99093 | 2207 ft | 0 kts | 96° |
| 2026-04-23 16:57 | 39.69820 | 66.99096 | 2207 ft | 3 kts | 96° |
| 2026-04-23 16:57 | 39.69844 | 66.99181 | 2207 ft | 16 kts | 70° |
| 2026-04-23 16:57 | 39.69840 | 66.99344 | 2208 ft | 22 kts | 96° |
| 2026-04-23 16:57 | 39.69821 | 66.99563 | 2208 ft | 25 kts | 96° |
| 2026-04-23 16:58 | 39.69805 | 66.99789 | 2208 ft | 26 kts | 95° |
| 2026-04-23 16:58 | 39.69812 | 66.99987 | 2208 ft | 18 kts | 41° |
| 2026-04-23 16:58 | 39.69934 | 67.00016 | 2208 ft | 19 kts | 7° |
| 2026-04-23 16:58 | 39.70028 | 66.99985 | 2207 ft | 8 kts | 278° |
| 2026-04-23 16:59 | 39.70035 | 66.99922 | 2207 ft | 8 kts | 278° |
| 2026-04-23 16:59 | 39.70042 | 66.99845 | 2207 ft | 15 kts | 275° |
| 2026-04-23 16:59 | 39.70074 | 66.99391 | 2209 ft | 88 kts | 275° |
| 2026-04-23 16:59 | 39.70157 | 66.98329 | 2208 ft | 149 kts | 276° |
| 2026-04-23 17:00 | 39.70278 | 66.96804 | 2510 ft | 172 kts | 276° |
| 2026-04-23 17:00 | 39.70588 | 66.95356 | 3269 ft | 170 kts | 300° |
| 2026-04-23 17:00 | 39.71377 | 66.94201 | 3812 ft | 179 kts | 326° |
| 2026-04-23 17:00 | 39.72606 | 66.93722 | 4113 ft | 199 kts | 9° |
| 2026-04-23 17:01 | 39.73871 | 66.94572 | 4406 ft | 220 kts | 43° |
| 2026-04-23 17:01 | 39.75056 | 66.95997 | 4780 ft | 244 kts | 43° |
| 2026-04-23 17:01 | 39.76367 | 66.97576 | 5223 ft | 269 kts | 43° |
| 2026-04-23 17:01 | 39.77807 | 66.99292 | 5673 ft | 293 kts | 43° |
| 2026-04-23 17:02 | 39.79382 | 67.01153 | 6102 ft | 317 kts | 42° |
| 2026-04-23 17:02 | 39.81032 | 67.03087 | 6766 ft | 328 kts | 41° |
| 2026-04-23 17:02 | 39.82753 | 67.05089 | 7554 ft | 335 kts | 41° |
| 2026-04-23 17:02 | 39.84509 | 67.07125 | 8363 ft | 341 kts | 41° |
| 2026-04-23 17:03 | 39.86295 | 67.09196 | 9180 ft | 347 kts | 41° |
| 2026-04-23 17:03 | 39.88103 | 67.11298 | 10048 ft | 351 kts | 41° |
| 2026-04-23 17:03 | 39.89941 | 67.13439 | 10815 ft | 356 kts | 41° |
| 2026-04-23 17:03 | 39.91799 | 67.15608 | 11586 ft | 361 kts | 41° |
| 2026-04-23 17:04 | 39.93685 | 67.17806 | 12345 ft | 366 kts | 41° |
| 2026-04-23 17:04 | 39.95592 | 67.20033 | 13084 ft | 371 kts | 41° |
| 2026-04-23 17:04 | 39.97495 | 67.22261 | 13804 ft | 376 kts | 41° |
| 2026-04-23 17:04 | 39.99460 | 67.24558 | 14419 ft | 382 kts | 41° |
| 2026-04-23 17:05 | 40.01457 | 67.26893 | 15059 ft | 387 kts | 41° |
| 2026-04-23 17:05 | 40.03467 | 67.29249 | 15702 ft | 392 kts | 41° |
| 2026-04-23 17:05 | 40.05507 | 67.31642 | 16359 ft | 396 kts | 41° |
| 2026-04-23 17:05 | 40.07563 | 67.34059 | 16997 ft | 400 kts | 41° |
| 2026-04-23 17:06 | 40.09645 | 67.36514 | 17628 ft | 405 kts | 41° |
| 2026-04-23 17:06 | 40.11746 | 67.38994 | 18256 ft | 410 kts | 41° |
| 2026-04-23 17:06 | 40.13873 | 67.41502 | 18804 ft | 414 kts | 40° |
| 2026-04-23 17:06 | 40.15999 | 67.44004 | 19342 ft | 419 kts | 41° |
| 2026-04-23 17:07 | 40.18175 | 67.46562 | 19872 ft | 424 kts | 40° |
| 2026-04-23 17:07 | 40.20376 | 67.49151 | 20394 ft | 428 kts | 40° |
| 2026-04-23 17:07 | 40.22602 | 67.51777 | 20916 ft | 433 kts | 40° |
| 2026-04-23 17:07 | 40.24824 | 67.54475 | 21409 ft | 439 kts | 45° |
| 2026-04-23 17:08 | 40.26892 | 67.57449 | 21901 ft | 444 kts | 47° |
| 2026-04-23 17:08 | 40.28976 | 67.60473 | 22412 ft | 449 kts | 47° |
| 2026-04-23 17:08 | 40.31084 | 67.63526 | 22878 ft | 454 kts | 47° |
| 2026-04-23 17:08 | 40.33182 | 67.66565 | 23028 ft | 457 kts | 47° |
| 2026-04-23 17:09 | 40.35311 | 67.69656 | 23053 ft | 457 kts | 47° |
| 2026-04-23 17:09 | 40.37440 | 67.72753 | 23047 ft | 457 kts | 47° |
| 2026-04-23 17:09 | 40.39569 | 67.75850 | 23048 ft | 457 kts | 47° |
| 2026-04-23 17:09 | 40.41699 | 67.78944 | 23048 ft | 457 kts | 47° |
| 2026-04-23 17:10 | 40.43829 | 67.82040 | 23056 ft | 456 kts | 47° |
| 2026-04-23 17:10 | 40.45944 | 67.85125 | 23002 ft | 453 kts | 47° |
| 2026-04-23 17:10 | 40.48030 | 67.88172 | 22727 ft | 443 kts | 47° |
| 2026-04-23 17:10 | 40.50049 | 67.91125 | 22459 ft | 438 kts | 47° |
| 2026-04-23 17:11 | 40.52080 | 67.94098 | 22201 ft | 435 kts | 47° |
| 2026-04-23 17:11 | 40.54098 | 67.97052 | 21939 ft | 433 kts | 47° |
| 2026-04-23 17:11 | 40.56103 | 67.99990 | 21680 ft | 430 kts | 47° |
| 2026-04-23 17:11 | 40.58092 | 68.02909 | 21423 ft | 427 kts | 47° |
| 2026-04-23 17:12 | 40.60063 | 68.05802 | 20984 ft | 423 kts | 47° |
| 2026-04-23 17:12 | 40.62022 | 68.08681 | 20454 ft | 421 kts | 47° |
| 2026-04-23 17:12 | 40.63951 | 68.11514 | 19897 ft | 420 kts | 47° |
| 2026-04-23 17:12 | 40.65898 | 68.14372 | 19361 ft | 419 kts | 47° |
| 2026-04-23 17:13 | 40.67843 | 68.17233 | 18800 ft | 419 kts | 48° |
| 2026-04-23 17:13 | 40.69779 | 68.20091 | 18215 ft | 418 kts | 48° |
| 2026-04-23 17:13 | 40.71710 | 68.22950 | 17642 ft | 416 kts | 48° |
| 2026-04-23 17:13 | 40.73620 | 68.25778 | 17129 ft | 411 kts | 48° |
| 2026-04-23 17:14 | 40.75512 | 68.28581 | 16666 ft | 407 kts | 48° |
| 2026-04-23 17:14 | 40.77397 | 68.31376 | 16113 ft | 405 kts | 48° |
| 2026-04-23 17:14 | 40.79257 | 68.34131 | 15537 ft | 403 kts | 48° |
| 2026-04-23 17:14 | 40.81079 | 68.36832 | 15182 ft | 396 kts | 48° |
| 2026-04-23 17:15 | 40.82899 | 68.39535 | 14648 ft | 391 kts | 48° |
| 2026-04-23 17:15 | 40.84695 | 68.42208 | 13929 ft | 387 kts | 48° |
| 2026-04-23 17:15 | 40.86466 | 68.44842 | 13275 ft | 379 kts | 47° |
| 2026-04-23 17:15 | 40.88195 | 68.47410 | 12761 ft | 368 kts | 47° |
| 2026-04-23 17:16 | 40.89871 | 68.49900 | 12262 ft | 358 kts | 47° |
| 2026-04-23 17:16 | 40.91507 | 68.52339 | 11758 ft | 349 kts | 47° |
| 2026-04-23 17:16 | 40.93096 | 68.54713 | 11269 ft | 341 kts | 47° |
| 2026-04-23 17:16 | 40.94632 | 68.57010 | 10788 ft | 334 kts | 47° |
| 2026-04-23 17:17 | 40.96156 | 68.59292 | 10357 ft | 326 kts | 47° |
| 2026-04-23 17:17 | 40.97626 | 68.61491 | 10107 ft | 315 kts | 47° |
| 2026-04-23 17:17 | 40.99060 | 68.63635 | 9875 ft | 308 kts | 47° |
| 2026-04-23 17:17 | 41.00478 | 68.65755 | 9754 ft | 306 kts | 47° |
| 2026-04-23 17:18 | 41.03284 | 68.69955 | 9147 ft | 304 kts | 48° |
| 2026-04-23 17:18 | 41.04673 | 68.72040 | 8750 ft | 301 kts | 48° |
| 2026-04-23 17:18 | 41.06064 | 68.74127 | 8366 ft | 299 kts | 48° |
| 2026-04-23 17:19 | 41.07403 | 68.76140 | 7840 ft | 292 kts | 48° |
| 2026-04-23 17:19 | 41.08739 | 68.78152 | 7196 ft | 288 kts | 48° |
| 2026-04-23 17:19 | 41.10048 | 68.80124 | 6615 ft | 282 kts | 48° |
| 2026-04-23 17:19 | 41.11328 | 68.82053 | 6159 ft | 277 kts | 48° |
| 2026-04-23 17:20 | 41.12603 | 68.83977 | 5690 ft | 278 kts | 49° |
| 2026-04-23 17:20 | 41.15151 | 68.87822 | 4769 ft | 278 kts | 49° |
| 2026-04-23 17:21 | 41.17586 | 68.91495 | 4458 ft | 253 kts | 49° |
| 2026-04-23 17:21 | 41.18716 | 68.93201 | 4347 ft | 240 kts | 49° |
| 2026-04-23 17:21 | 41.20835 | 68.96403 | 4157 ft | 227 kts | 49° |
| 2026-04-23 17:22 | 41.21874 | 68.97988 | 4058 ft | 227 kts | 52° |
| 2026-04-23 17:22 | 41.22916 | 69.01851 | 3996 ft | 226 kts | 82° |
| 2026-04-23 17:23 | 41.23367 | 69.05878 | 4003 ft | 208 kts | 82° |
| 2026-04-23 17:23 | 41.23573 | 69.07704 | 4015 ft | 199 kts | 82° |
| 2026-04-23 17:23 | 41.23970 | 69.11250 | 3581 ft | 189 kts | 82° |
| 2026-04-23 17:24 | 41.24158 | 69.12931 | 3343 ft | 178 kts | 82° |
| 2026-04-23 17:24 | 41.24337 | 69.14532 | 3115 ft | 172 kts | 82° |
| 2026-04-23 17:24 | 41.24659 | 69.17415 | 2705 ft | 148 kts | 82° |
| 2026-04-23 17:25 | 41.24953 | 69.20059 | 2310 ft | 143 kts | 82° |
| 2026-04-23 17:25 | 41.25096 | 69.21343 | 2087 ft | 142 kts | 82° |
| 2026-04-23 17:26 | 41.25384 | 69.23934 | 1723 ft | 142 kts | 82° |
| 2026-04-23 17:26 | 41.25669 | 69.26510 | 1389 ft | 136 kts | 83° |
| 2026-04-23 17:27 | 41.25857 | 69.28217 | 1383 ft | 58 kts | 82° |
| 2026-04-23 17:27 | 41.25905 | 69.28646 | 1379 ft | 39 kts | 82° |
| 2026-04-23 17:27 | 41.25951 | 69.28893 | 1379 ft | 18 kts | 39° |
| 2026-04-23 17:27 | 41.26047 | 69.28849 | 1380 ft | 12 kts | 317° |
| 2026-04-23 17:28 | 41.26105 | 69.28778 | 1379 ft | 10 kts | 317° |
| 2026-04-23 17:28 | 41.26153 | 69.28719 | 1379 ft | 9 kts | 317° |
| 2026-04-23 17:28 | 41.26185 | 69.28632 | 1380 ft | 17 kts | 274° |
| 2026-04-23 17:28 | 41.26190 | 69.28457 | 1381 ft | 20 kts | 272° |
| 2026-04-23 17:29 | 41.26178 | 69.28279 | 1379 ft | 20 kts | 262° |
| 2026-04-23 17:29 | 41.26157 | 69.28079 | 1380 ft | 25 kts | 262° |
| 2026-04-23 17:29 | 41.26092 | 69.27496 | 1380 ft | 36 kts | 261° |
| 2026-04-23 17:30 | 41.26041 | 69.27204 | 1378 ft | 28 kts | 244° |
| 2026-04-23 17:30 | 41.26038 | 69.27002 | 1380 ft | 7 kts | 337° |
| 2026-04-23 17:30 | 41.26044 | 69.26998 | 1380 ft | 0 kts | 337° |